Time;durP1;ratioP1;P1;durP2;ratioP2;P2;SDS_P1;SDS_P2;PMS_P1;PMS_P2;Temp;Humidity;BMP_temperature;BMP_pressure;BME280_temperature;BME280_humidity;BME280_pressure;Samples;Min_cycle;Max_cycle;Signal;HPM_P1;HPM_P2
2023/07/09 00:02:14;;;;;;;0.65;0.50;;;;;;;18.02;100.00;100304.41;6068952;23;20089;-88
2023/07/09 00:04:40;;;;;;;0.10;0.10;;;;;;;18.06;100.00;100304.97;6065996;23;20050;-89
2023/07/09 00:07:11;;;;;;;0.40;0.40;;;;;;;18.01;100.00;100305.66;6065872;23;20053;-88
2023/07/09 00:09:37;;;;;;;0.22;0.22;;;;;;;18.00;100.00;100308.91;6065630;23;20046;-88
2023/07/09 00:12:02;;;;;;;1.08;1.08;;;;;;;17.90;100.00;100310.28;6089428;23;20006;-89
2023/07/09 00:14:28;;;;;;;0.32;0.32;;;;;;;17.88;100.00;100319.16;6114283;23;20553;-88
2023/07/09 00:16:54;;;;;;;1.45;0.70;;;;;;;17.88;100.00;100313.53;6065953;23;20025;-89
2023/07/09 00:19:23;;;;;;;0.95;0.60;;;;;;;17.75;100.00;100320.69;6088478;23;20046;-89
2023/07/09 00:21:52;;;;;;;0.40;0.40;;;;;;;17.80;100.00;100328.41;6089634;23;20015;-88
2023/07/09 00:24:19;;;;;;;2.08;1.25;;;;;;;17.82;100.00;100326.72;6065458;23;20435;-88
2023/07/09 00:26:46;;;;;;;1.40;0.52;;;;;;;17.71;100.00;100310.41;6066201;23;20388;-88
2023/07/09 00:29:13;;;;;;;1.27;0.85;;;;;;;17.62;100.00;100313.31;6066017;23;20014;-88
2023/07/09 00:31:40;;;;;;;0.55;0.55;;;;;;;17.68;100.00;100333.81;6090017;23;20021;-88
2023/07/09 00:34:11;;;;;;;0.43;0.43;;;;;;;17.63;100.00;100326.06;6065072;23;20097;-89
2023/07/09 00:36:37;;;;;;;1.08;1.02;;;;;;;17.57;100.00;100310.34;6042336;23;20049;-88
2023/07/09 00:39:06;;;;;;;0.50;0.40;;;;;;;17.49;100.00;100320.38;6089137;23;20446;-88
2023/07/09 00:41:36;;;;;;;0.32;0.32;;;;;;;17.50;100.00;100331.13;6066711;23;20014;-88
2023/07/09 00:44:30;;;;;;;0.68;0.68;;;;;;;17.50;100.00;100331.13;6041101;23;20022;-88
2023/07/09 00:47:02;;;;;;;0.30;0.22;;;;;;;17.47;100.00;100322.88;6061184;23;20140;-88
2023/07/09 00:49:36;;;;;;;2.40;1.83;;;;;;;17.38;100.00;100315.31;6088803;23;20017;-88
2023/07/09 00:52:19;;;;;;;0.95;0.50;;;;;;;17.36;100.00;100317.78;6041421;23;20010;-88
2023/07/09 00:54:46;;;;;;;0.60;0.60;;;;;;;17.41;100.00;100325.56;6089917;23;20006;-88
2023/07/09 00:57:17;;;;;;;1.00;0.90;;;;;;;17.37;100.00;100322.16;6018420;23;20325;-88
2023/07/09 00:59:52;;;;;;;0.30;0.30;;;;;;;17.27;100.00;100310.22;6041010;23;20025;-88
2023/07/09 01:02:29;;;;;;;0.60;0.60;;;;;;;17.33;100.00;100318.75;6065690;23;20294;-93
2023/07/09 01:05:00;;;;;;;1.05;0.65;;;;;;;17.19;100.00;100303.41;6074760;23;20044;-87
2023/07/09 01:07:27;;;;;;;0.30;0.30;;;;;;;17.29;100.00;100312.56;6095730;23;20032;-86
2023/07/09 01:09:53;;;;;;;0.68;0.65;;;;;;;17.27;100.00;100319.91;6070608;23;20513;-87
2023/07/09 01:12:20;;;;;;;0.75;0.73;;;;;;;17.20;100.00;100321.78;6071013;23;20052;-87
2023/07/09 01:14:48;;;;;;;1.45;0.90;;;;;;;17.15;100.00;100319.63;6070827;23;20020;-88
2023/07/09 01:17:14;;;;;;;1.30;1.17;;;;;;;17.21;100.00;100317.75;6095049;23;20025;-87
2023/07/09 01:19:46;;;;;;;0.60;0.45;;;;;;;17.22;100.00;100318.53;6071039;23;20018;-87
2023/07/09 01:22:14;;;;;;;0.43;0.43;;;;;;;17.16;100.00;100314.81;6072411;23;20468;-87
2023/07/09 01:24:54;;;;;;;0.50;0.50;;;;;;;17.08;100.00;100322.00;6094838;23;20018;-87
2023/07/09 01:27:24;;;;;;;3.13;0.93;;;;;;;17.02;100.00;100318.31;6071181;23;20057;-87
2023/07/09 01:29:49;;;;;;;0.98;0.43;;;;;;;17.03;100.00;100319.84;6119871;23;20446;-87
2023/07/09 01:32:18;;;;;;;0.70;0.70;;;;;;;17.01;100.00;100311.16;6119215;23;20036;-87
2023/07/09 01:34:47;;;;;;;0.52;0.45;;;;;;;17.02;100.00;100326.72;6119847;23;20018;-87
2023/07/09 01:37:17;;;;;;;0.82;0.38;;;;;;;16.95;100.00;100321.44;6072518;23;20442;-87
2023/07/09 01:39:42;;;;;;;1.25;0.55;;;;;;;16.98;100.00;100326.13;6120176;23;20010;-87
2023/07/09 01:42:08;;;;;;;1.15;0.88;;;;;;;16.93;100.00;100326.75;6096156;23;20045;-87
2023/07/09 01:44:35;;;;;;;0.73;0.63;;;;;;;16.90;100.00;100330.50;6119695;23;20009;-87
2023/07/09 01:47:03;;;;;;;0.63;0.57;;;;;;;16.96;100.00;100334.22;6095217;23;20018;-87
2023/07/09 01:49:32;;;;;;;0.40;0.40;;;;;;;17.03;100.00;100339.47;6095494;23;20010;-88
2023/07/09 01:52:01;;;;;;;0.55;0.30;;;;;;;17.01;100.00;100339.19;6120251;23;20104;-87
2023/07/09 01:54:30;;;;;;;1.48;0.95;;;;;;;16.98;100.00;100340.13;6095581;23;20021;-88
2023/07/09 01:57:16;;;;;;;0.65;0.65;;;;;;;16.93;100.00;100335.16;6095783;23;20022;-88
2023/07/09 01:59:43;;;;;;;1.25;1.00;;;;;;;16.93;100.00;100329.56;6095948;23;20434;-87
2023/07/09 02:02:15;;;;;;;0.45;0.45;;;;;;;16.90;100.00;100336.13;6095457;23;20041;-88
2023/07/09 02:04:42;;;;;;;0.45;0.30;;;;;;;16.89;100.00;100335.34;6090824;23;20009;-87
2023/07/09 02:07:08;;;;;;;0.70;0.57;;;;;;;16.88;100.00;100344.19;6125326;23;20393;-88
2023/07/09 02:09:35;;;;;;;1.55;0.98;;;;;;;16.89;100.00;100334.56;6125022;23;20460;-87
2023/07/09 02:12:02;;;;;;;0.30;0.30;;;;;;;16.82;100.00;100335.69;6099985;23;20041;-87
2023/07/09 02:14:29;;;;;;;0.60;0.43;;;;;;;16.85;100.00;100339.56;6076758;23;20013;-87
2023/07/09 02:16:54;;;;;;;1.10;0.93;;;;;;;16.77;100.00;100331.50;6100280;23;20017;-87
2023/07/09 02:19:20;;;;;;;0.77;0.77;;;;;;;16.87;100.00;100337.81;6075742;23;20016;-88
2023/07/09 02:21:46;;;;;;;1.65;0.73;;;;;;;16.84;100.00;100326.78;6100904;23;20080;-87
2023/07/09 02:24:11;;;;;;;1.45;1.02;;;;;;;16.78;100.00;100321.06;6099876;23;20050;-87
2023/07/09 02:26:37;;;;;;;0.70;0.40;;;;;;;16.83;100.00;100337.22;6100858;23;20009;-86
2023/07/09 02:29:02;;;;;;;0.32;0.28;;;;;;;16.81;100.00;100325.72;6076227;23;20020;-87
2023/07/09 02:31:29;;;;;;;2.80;0.85;;;;;;;16.78;100.00;100332.28;6100787;23;20294;-87
2023/07/09 02:33:56;;;;;;;0.38;0.30;;;;;;;16.75;100.00;100336.78;6074233;23;20017;-88
2023/07/09 02:36:23;;;;;;;0.50;0.50;;;;;;;16.74;100.00;100335.22;6076711;23;20025;-88
2023/07/09 02:38:49;;;;;;;2.58;0.65;;;;;;;16.75;100.00;100333.19;6100031;23;20438;-87
2023/07/09 02:41:15;;;;;;;0.45;0.45;;;;;;;16.77;100.00;100345.50;6076579;23;20066;-87
2023/07/09 02:43:40;;;;;;;0.50;0.50;;;;;;;16.79;100.00;100348.59;6076421;23;20322;-87
2023/07/09 02:46:06;;;;;;;0.65;0.65;;;;;;;16.74;100.00;100342.88;6076230;23;20527;-88
2023/07/09 02:48:32;;;;;;;0.85;0.70;;;;;;;16.73;100.00;100344.91;6098796;23;20061;-88
2023/07/09 02:50:57;;;;;;;1.10;0.82;;;;;;;16.72;100.00;100348.94;6099677;23;20013;-87
2023/07/09 02:53:23;;;;;;;0.85;0.70;;;;;;;16.74;100.00;100349.22;6124768;23;20024;-87
2023/07/09 02:55:49;;;;;;;1.55;0.75;;;;;;;16.77;100.00;100350.31;6124286;23;20341;-88
2023/07/09 02:58:14;;;;;;;0.32;0.32;;;;;;;16.78;100.00;100355.44;6100329;23;20017;-87
2023/07/09 03:00:40;;;;;;;0.75;0.70;;;;;;;16.88;100.00;100361.00;6151579;23;20441;-87
2023/07/09 03:03:05;;;;;;;0.70;0.70;;;;;;;16.88;100.00;100363.81;6099336;23;20417;-87
2023/07/09 03:05:31;;;;;;;0.35;0.35;;;;;;;16.90;100.00;100370.53;6099871;23;20668;-88
2023/07/09 03:07:56;;;;;;;0.30;0.30;;;;;;;16.79;100.00;100371.00;6075640;23;20017;-88
2023/07/09 03:10:22;;;;;;;3.75;0.90;;;;;;;16.73;100.00;100372.91;6099682;23;20528;-87
2023/07/09 03:12:47;;;;;;;0.70;0.70;;;;;;;16.50;100.00;100370.72;6098967;23;20014;-87
2023/07/09 03:15:14;;;;;;;1.02;0.93;;;;;;;16.38;100.00;100368.88;6098856;23;20049;-87
2023/07/09 03:17:39;;;;;;;1.10;0.73;;;;;;;16.31;100.00;100381.19;6123639;23;20041;-87
2023/07/09 03:20:07;;;;;;;0.68;0.68;;;;;;;16.19;100.00;100362.53;6097569;23;20028;-87
2023/07/09 03:22:33;;;;;;;0.45;0.15;;;;;;;16.14;100.00;100379.16;6076337;23;20044;-87
2023/07/09 03:24:59;;;;;;;0.30;0.30;;;;;;;16.12;100.00;100376.06;6098476;23;20013;-87
2023/07/09 03:27:24;;;;;;;0.82;0.82;;;;;;;16.16;100.00;100385.09;6099405;23;20028;-87
2023/07/09 03:29:50;;;;;;;0.40;0.40;;;;;;;16.18;100.00;100377.75;6123742;23;20260;-87
2023/07/09 03:32:15;;;;;;;0.47;0.45;;;;;;;16.20;100.00;100385.72;6099912;23;20392;-88
2023/07/09 03:34:41;;;;;;;0.40;0.40;;;;;;;16.23;100.00;100390.38;6098907;23;20502;-86
2023/07/09 03:37:06;;;;;;;0.73;0.73;;;;;;;16.23;100.00;100370.78;6100084;23;20009;-87
2023/07/09 03:39:32;;;;;;;0.55;0.55;;;;;;;16.34;100.00;100385.06;6099710;23;20017;-87
2023/07/09 03:41:57;;;;;;;3.28;0.98;;;;;;;16.41;100.00;100390.38;6099581;23;20005;-87
2023/07/09 03:44:23;;;;;;;1.25;1.15;;;;;;;16.47;100.00;100382.09;6099073;23;20376;-87
2023/07/09 03:46:48;;;;;;;0.28;0.28;;;;;;;16.51;100.00;100380.69;6123694;23;20009;-87
2023/07/09 03:49:14;;;;;;;1.20;1.08;;;;;;;16.53;100.00;100383.81;6123689;23;20048;-87
2023/07/09 03:51:40;;;;;;;2.08;0.68;;;;;;;16.49;100.00;100357.22;6124397;23;20446;-86
2023/07/09 03:54:05;;;;;;;0.98;0.68;;;;;;;16.50;100.00;100379.13;6098438;23;20018;-87
2023/07/09 03:56:31;;;;;;;0.85;0.75;;;;;;;16.38;100.00;100366.09;6099471;23;20021;-87
2023/07/09 03:58:57;;;;;;;9.35;1.60;;;;;;;16.47;100.00;100377.28;6075015;23;20093;-87
2023/07/09 04:01:22;;;;;;;0.68;0.57;;;;;;;16.51;100.00;100371.50;6099762;23;20059;-87
2023/07/09 04:03:48;;;;;;;1.48;0.60;;;;;;;16.61;100.00;100385.06;6092817;23;20417;-87
2023/07/09 04:06:13;;;;;;;1.58;1.48;;;;;;;16.70;100.00;100385.03;6046351;23;20021;-87
2023/07/09 04:08:39;;;;;;;0.90;0.90;;;;;;;16.75;100.00;100380.81;6070722;23;20464;-87
2023/07/09 04:11:05;;;;;;;0.45;0.45;;;;;;;16.77;100.00;100367.91;6094006;23;20171;-88
2023/07/09 04:13:30;;;;;;;1.15;0.95;;;;;;;16.85;100.00;100368.34;6094415;23;20045;-88
2023/07/09 04:15:57;;;;;;;0.85;0.85;;;;;;;16.87;100.00;100365.06;6070879;23;20014;-88
2023/07/09 04:18:22;;;;;;;0.47;0.47;;;;;;;16.84;100.00;100363.22;6094515;23;20014;-88
2023/07/09 04:20:49;;;;;;;0.22;0.22;;;;;;;16.82;100.00;100374.13;6046266;23;20025;-88
2023/07/09 04:23:15;;;;;;;0.32;0.30;;;;;;;16.73;100.00;100367.31;6070976;23;20018;-87
2023/07/09 04:25:41;;;;;;;0.68;0.68;;;;;;;16.87;100.00;100376.25;6070578;23;20588;-88
2023/07/09 04:28:07;;;;;;;0.57;0.57;;;;;;;16.86;100.00;100363.53;6070597;23;20041;-87
2023/07/09 04:30:32;;;;;;;0.50;0.50;;;;;;;16.99;100.00;100369.69;6070885;23;20092;-86
2023/07/09 04:32:58;;;;;;;0.70;0.70;;;;;;;17.08;100.00;100369.66;6068996;23;20061;-87
2023/07/09 04:35:23;;;;;;;1.13;0.88;;;;;;;17.07;100.00;100357.66;6069314;23;20010;-86
2023/07/09 04:37:49;;;;;;;0.95;0.95;;;;;;;17.24;100.00;100372.06;6047408;23;20038;-87
2023/07/09 04:40:17;;;;;;;1.50;1.40;;;;;;;17.30;100.00;100373.00;6048140;23;20053;-86
2023/07/09 04:42:43;;;;;;;0.47;0.40;;;;;;;17.44;100.00;100383.50;6071044;23;20061;-87
2023/07/09 04:45:10;;;;;;;0.35;0.35;;;;;;;17.49;100.00;100380.03;6071732;23;20351;-87
2023/07/09 04:47:36;;;;;;;0.85;0.82;;;;;;;17.59;100.00;100381.56;6072546;23;20013;-87
2023/07/09 04:50:03;;;;;;;5.35;0.82;;;;;;;17.65;100.00;100378.88;6047474;23;20013;-86
2023/07/09 04:52:30;;;;;;;0.28;0.28;;;;;;;17.74;100.00;100383.66;6095775;23;20025;-86
2023/07/09 04:54:56;;;;;;;0.80;0.63;;;;;;;17.80;100.00;100384.53;6049029;23;20096;-87
2023/07/09 04:57:22;;;;;;;0.35;0.35;;;;;;;17.87;100.00;100387.78;6048852;23;20104;-86
2023/07/09 04:59:49;;;;;;;0.50;0.50;;;;;;;17.94;100.00;100389.44;6121535;23;20506;-86
2023/07/09 05:02:14;;;;;;;2.58;1.08;;;;;;;17.94;100.00;100381.03;6094472;23;20014;-86
2023/07/09 05:04:40;;;;;;;0.65;0.65;;;;;;;18.04;100.00;100390.91;6061504;23;20017;-86
2023/07/09 05:07:06;;;;;;;0.80;0.65;;;;;;;18.07;100.00;100389.97;6096269;23;20045;-86
2023/07/09 05:09:32;;;;;;;0.65;0.55;;;;;;;18.12;100.00;100389.28;6096593;23;20097;-87
2023/07/09 05:11:58;;;;;;;0.45;0.45;;;;;;;18.14;100.00;100389.59;6096593;23;20051;-86
2023/07/09 05:14:26;;;;;;;0.40;0.40;;;;;;;18.25;100.00;100392.63;6096452;23;20014;-87
2023/07/09 05:16:53;;;;;;;0.60;0.60;;;;;;;18.36;100.00;100386.44;6120373;23;20014;-86
2023/07/09 05:19:18;;;;;;;1.05;0.95;;;;;;;18.41;100.00;100372.50;6120243;23;20447;-87
2023/07/09 05:21:44;;;;;;;0.60;0.60;;;;;;;18.50;100.00;100377.25;6096405;23;20093;-87
2023/07/09 05:24:09;;;;;;;0.80;0.60;;;;;;;18.72;100.00;100388.16;6095836;23;20010;-87
2023/07/09 05:26:35;;;;;;;0.63;0.63;;;;;;;18.91;100.00;100393.06;6120468;23;20041;-87
2023/07/09 05:29:03;;;;;;;2.00;0.85;;;;;;;19.14;100.00;100404.66;6144554;23;20009;-87
2023/07/09 05:31:28;;;;;;;1.13;0.68;;;;;;;19.49;100.00;100397.81;6120735;23;20006;-86
2023/07/09 05:33:54;;;;;;;1.80;1.52;;;;;;;19.74;100.00;100401.22;6144222;23;20109;-86
2023/07/09 05:36:19;;;;;;;2.47;1.50;;;;;;;19.96;100.00;100402.31;6095849;23;20405;-87
2023/07/09 05:38:46;;;;;;;2.35;1.23;;;;;;;20.15;100.00;100405.59;6120232;23;20092;-87
2023/07/09 05:41:12;;;;;;;1.55;0.75;;;;;;;20.25;100.00;100395.75;6120820;23;20050;-87
2023/07/09 05:43:37;;;;;;;0.57;0.57;;;;;;;20.54;100.00;100399.66;6121295;23;20009;-87
2023/07/09 05:46:05;;;;;;;1.67;0.93;;;;;;;20.85;100.00;100410.97;6045665;23;20068;-87
2023/07/09 05:48:30;;;;;;;0.88;0.77;;;;;;;21.07;100.00;100413.22;6092008;23;20002;-87
2023/07/09 05:50:56;;;;;;;1.05;0.95;;;;;;;21.39;100.00;100414.78;6094350;23;20021;-87
2023/07/09 05:53:22;;;;;;;0.85;0.85;;;;;;;21.71;100.00;100410.63;6114318;23;20025;-87
2023/07/09 05:55:48;;;;;;;1.40;1.10;;;;;;;22.03;100.00;100425.44;6068638;23;20014;-86
2023/07/09 05:58:13;;;;;;;0.57;0.57;;;;;;;22.32;100.00;100422.19;6142481;23;20443;-87
2023/07/09 06:00:41;;;;;;;1.25;1.08;;;;;;;22.64;100.00;100425.63;6117086;23;20010;-87
2023/07/09 06:03:07;;;;;;;3.22;1.50;;;;;;;22.90;100.00;100419.75;6092845;23;20010;-87
2023/07/09 06:05:36;;;;;;;0.93;0.55;;;;;;;23.18;100.00;100426.19;6096996;23;20013;-86
2023/07/09 06:08:02;;;;;;;0.80;0.80;;;;;;;23.25;100.00;100419.25;6095994;23;20021;-88
2023/07/09 06:10:28;;;;;;;2.65;1.15;;;;;;;23.51;100.00;100421.81;6122068;23;20391;-87
2023/07/09 06:12:53;;;;;;;1.23;0.93;;;;;;;23.72;100.00;100417.41;6097755;23;20022;-87
2023/07/09 06:15:19;;;;;;;0.70;0.70;;;;;;;23.98;100.00;100417.06;6098791;23;20021;-87
2023/07/09 06:17:44;;;;;;;1.08;0.90;;;;;;;24.19;100.00;100420.34;6096665;23;20010;-88
2023/07/09 06:20:10;;;;;;;0.90;0.85;;;;;;;24.36;100.00;100426.69;6098128;23;20037;-87
2023/07/09 06:22:36;;;;;;;1.08;0.95;;;;;;;24.50;100.00;100417.09;6096561;23;20006;-87
2023/07/09 06:25:02;;;;;;;0.90;0.85;;;;;;;24.65;100.00;100414.69;6072800;23;20021;-87
2023/07/09 06:27:27;;;;;;;0.63;0.63;;;;;;;24.80;100.00;100419.97;6122064;23;20009;-87
2023/07/09 06:29:56;;;;;;;1.50;1.27;;;;;;;24.98;100.00;100428.66;6097975;23;20021;-88
2023/07/09 06:32:21;;;;;;;0.50;0.50;;;;;;;25.23;100.00;100425.88;6098177;23;20001;-88
2023/07/09 06:34:47;;;;;;;0.93;0.93;;;;;;;25.40;96.97;100423.63;6096244;23;20022;-87
2023/07/09 06:37:12;;;;;;;0.65;0.47;;;;;;;25.59;94.56;100421.69;6097591;23;20446;-88
2023/07/09 06:39:38;;;;;;;0.68;0.68;;;;;;;25.52;87.64;100419.38;6121575;23;20017;-88
2023/07/09 06:42:04;;;;;;;0.80;0.80;;;;;;;25.72;91.03;100426.72;6073927;23;20547;-88
2023/07/09 06:44:54;;;;;;;1.20;1.10;;;;;;;25.86;89.09;100431.97;6102928;23;20088;-88
2023/07/09 06:47:20;;;;;;;1.58;1.02;;;;;;;26.24;86.41;100426.38;6122087;23;20501;-88
2023/07/09 06:49:45;;;;;;;1.17;1.13;;;;;;;26.40;83.31;100423.31;6096317;23;20224;-88
2023/07/09 06:52:11;;;;;;;1.27;1.20;;;;;;;26.69;80.81;100421.59;6122336;23;20041;-88
2023/07/09 06:54:36;;;;;;;0.50;0.50;;;;;;;26.80;73.30;100427.13;6097596;23;20021;-88
2023/07/09 06:57:02;;;;;;;0.95;0.95;;;;;;;26.90;73.32;100425.44;6121308;23;20115;-88
2023/07/09 06:59:28;;;;;;;1.48;1.00;;;;;;;26.88;72.67;100433.75;6120424;23;20005;-87
2023/07/09 07:01:53;;;;;;;1.23;0.75;;;;;;;26.92;74.42;100421.28;6097748;23;20049;-87
2023/07/09 07:04:19;;;;;;;0.85;0.75;;;;;;;27.22;73.68;100428.25;6097940;23;20032;-88
2023/07/09 07:06:44;;;;;;;1.83;0.90;;;;;;;27.57;72.75;100432.09;6098500;23;20021;-88
2023/07/09 07:09:10;;;;;;;1.35;1.25;;;;;;;27.75;69.29;100423.44;6124110;23;20013;-88
2023/07/09 07:11:36;;;;;;;0.63;0.63;;;;;;;28.11;69.16;100435.19;6123273;23;20017;-88
2023/07/09 07:14:01;;;;;;;0.80;0.77;;;;;;;28.30;66.72;100440.78;6075554;23;20104;-88
2023/07/09 07:16:27;;;;;;;0.55;0.55;;;;;;;28.35;62.49;100427.72;6098979;23;20463;-88
2023/07/09 07:18:52;;;;;;;0.98;0.95;;;;;;;28.12;65.03;100424.56;6074731;23;20262;-88
2023/07/09 07:21:18;;;;;;;2.35;1.38;;;;;;;28.63;65.09;100431.47;6124353;23;20005;-88
2023/07/09 07:23:43;;;;;;;1.42;1.33;;;;;;;28.78;63.37;100435.84;6074883;23;20217;-88
2023/07/09 07:26:09;;;;;;;2.28;1.38;;;;;;;28.81;63.73;100440.44;6075225;23;20088;-88
2023/07/09 07:28:35;;;;;;;0.90;0.90;;;;;;;29.10;63.45;100439.97;6149402;23;20331;-88
2023/07/09 07:31:07;;;;;;;0.50;0.50;;;;;;;29.38;65.37;100442.16;6124684;23;20445;-88
2023/07/09 07:33:33;;;;;;;0.88;0.85;;;;;;;29.50;62.56;100436.91;6096583;23;20017;-88
2023/07/09 07:36:05;;;;;;;0.75;0.75;;;;;;;29.53;57.04;100436.56;6100026;23;20010;-88
2023/07/09 07:38:30;;;;;;;1.08;1.02;;;;;;;29.55;56.81;100438.88;6076407;23;20468;-87
2023/07/09 07:40:56;;;;;;;1.30;1.20;;;;;;;29.57;55.53;100419.06;6099877;23;20450;-89
2023/07/09 07:43:21;;;;;;;1.85;1.40;;;;;;;29.48;56.83;100428.16;6123755;23;20476;-88
2023/07/09 07:45:48;;;;;;;1.20;1.05;;;;;;;29.73;60.04;100431.34;6123335;23;20060;-88
2023/07/09 07:48:27;;;;;;;1.25;0.95;;;;;;;29.73;59.33;100434.22;6099586;23;20009;-87
2023/07/09 07:50:59;;;;;;;1.25;1.15;;;;;;;29.85;60.33;100430.47;6075657;23;20096;-88
2023/07/09 07:53:24;;;;;;;0.57;0.50;;;;;;;30.16;59.30;100428.59;6126360;23;20013;-88
2023/07/09 07:55:51;;;;;;;0.98;0.90;;;;;;;30.05;56.13;100435.41;6099276;23;20024;-87
2023/07/09 07:58:17;;;;;;;0.68;0.68;;;;;;;30.14;55.03;100436.97;6101025;23;20403;-87
2023/07/09 08:01:00;;;;;;;0.90;0.55;;;;;;;30.43;54.86;100434.81;6103436;23;20013;-88
2023/07/09 08:03:26;;;;;;;0.70;0.70;;;;;;;30.81;49.70;100432.09;6100413;23;20018;-87
2023/07/09 08:05:52;;;;;;;0.77;0.77;;;;;;;30.71;42.78;100440.47;6075759;23;20013;-87
2023/07/09 08:08:17;;;;;;;0.63;0.63;;;;;;;30.30;45.45;100432.84;6098974;23;20036;-88
2023/07/09 08:11:04;;;;;;;0.63;0.63;;;;;;;30.72;45.30;100438.38;6101764;23;20092;-88
2023/07/09 08:13:34;;;;;;;0.60;0.47;;;;;;;30.89;42.92;100436.50;6096439;23;20025;-88
2023/07/09 08:16:00;;;;;;;0.80;0.63;;;;;;;31.02;43.07;100436.34;6101467;23;20064;-87
2023/07/09 08:18:26;;;;;;;0.52;0.52;;;;;;;31.41;43.20;100445.75;6098461;23;20013;-88
2023/07/09 08:21:07;;;;;;;1.05;0.65;;;;;;;31.53;41.03;100440.41;6124210;23;20457;-87
2023/07/09 08:23:32;;;;;;;0.93;0.93;;;;;;;31.83;41.69;100438.28;6098911;23;20028;-87
2023/07/09 08:26:01;;;;;;;0.50;0.50;;;;;;;31.61;39.38;100441.19;6101024;23;20017;-88
2023/07/09 08:28:27;;;;;;;1.25;1.17;;;;;;;31.29;40.22;100433.13;6122927;23;20427;-88
2023/07/09 08:30:53;;;;;;;0.88;0.88;;;;;;;31.50;39.27;100450.16;6101126;23;20018;-88
2023/07/09 08:33:31;;;;;;;1.05;0.82;;;;;;;31.37;40.33;100434.69;6127482;23;20018;-88
2023/07/09 08:35:57;;;;;;;1.30;1.20;;;;;;;31.83;40.86;100440.38;6126515;23;20048;-88
2023/07/09 08:38:23;;;;;;;1.20;1.02;;;;;;;32.01;39.31;100429.81;6125474;23;20016;-88
2023/07/09 08:40:59;;;;;;;0.70;0.70;;;;;;;32.19;37.48;100438.00;6077301;23;20018;-88
2023/07/09 08:43:43;;;;;;;1.15;0.93;;;;;;;32.50;36.63;100437.91;6100438;23;20014;-88
2023/07/09 08:46:20;;;;;;;1.35;0.82;;;;;;;31.98;36.45;100430.97;6124318;23;20093;-89
2023/07/09 08:48:47;;;;;;;0.47;0.47;;;;;;;31.79;37.30;100426.41;6075842;23;20021;-88
2023/07/09 08:51:32;;;;;;;1.80;0.98;;;;;;;32.19;37.97;100432.25;6101041;23;20070;-91
2023/07/09 08:53:59;;;;;;;0.50;0.50;;;;;;;32.31;36.94;100430.50;6126106;23;20353;-91
2023/07/09 08:56:26;;;;;;;0.82;0.60;;;;;;;32.38;34.83;100426.84;6101680;23;20014;-91
2023/07/09 09:01:52;;;;;;;0.60;0.60;;;;;;;32.80;34.99;100437.75;6152526;23;20493;-91
2023/07/09 09:04:38;;;;;;;1.05;0.85;;;;;;;32.61;35.19;100423.13;6076946;23;20018;-93
2023/07/09 09:07:40;;;;;;;0.57;0.57;;;;;;;33.04;35.84;100434.13;6114374;23;20041;-96
2023/07/09 11:31:25;;;;;;;0.95;0.88;;;;;;;34.85;30.21;100416.34;6183577;23;20320;-95
2023/07/09 15:59:56;;;;;;;0.68;0.68;;;;;;;32.67;34.39;100236.97;6160419;23;20021;-96
2023/07/09 16:02:23;;;;;;;0.80;0.80;;;;;;;32.63;34.86;100211.56;6087298;23;20014;-96
2023/07/09 16:04:50;;;;;;;0.85;0.70;;;;;;;32.70;34.62;100215.69;6083205;23;20096;-96
2023/07/09 16:07:37;;;;;;;0.60;0.60;;;;;;;32.80;34.38;100233.78;6098333;23;20002;-96
2023/07/09 16:10:11;;;;;;;2.97;1.13;;;;;;;32.29;34.68;100220.78;6094325;23;20076;-96
2023/07/09 16:12:36;;;;;;;1.75;1.38;;;;;;;32.22;35.35;100227.34;6132875;23;20057;-96
2023/07/09 16:15:02;;;;;;;1.48;1.05;;;;;;;32.10;35.74;100252.09;6104153;23;20038;-96
2023/07/09 16:17:54;;;;;;;1.05;0.90;;;;;;;32.20;36.00;100235.00;6108869;23;20029;-96
2023/07/09 16:20:26;;;;;;;1.92;1.80;;;;;;;32.37;35.79;100244.47;6052027;23;20022;-96
2023/07/09 16:23:15;;;;;;;0.70;0.70;;;;;;;31.90;35.09;100222.34;6057241;23;20014;-95
2023/07/09 16:25:59;;;;;;;1.70;0.85;;;;;;;31.87;35.78;100240.72;6132103;23;20092;-96
2023/07/09 16:28:25;;;;;;;1.58;1.27;;;;;;;31.64;36.92;100227.81;6107570;23;20010;-96
2023/07/09 16:31:07;;;;;;;0.52;0.50;;;;;;;31.60;36.95;100227.47;6082218;23;20002;-96
2023/07/09 16:33:33;;;;;;;0.52;0.52;;;;;;;31.37;36.69;100222.56;6117503;23;20025;-96
2023/07/09 16:36:01;;;;;;;1.30;1.20;;;;;;;31.26;37.31;100219.34;6085293;23;20005;-96
2023/07/09 16:38:27;;;;;;;0.38;0.38;;;;;;;31.11;37.06;100216.50;6089493;23;20014;-95
2023/07/09 16:40:53;;;;;;;0.50;0.50;;;;;;;31.45;37.55;100249.09;6113351;23;20009;-96
2023/07/09 16:43:30;;;;;;;1.08;0.98;;;;;;;31.29;37.96;100221.06;6114276;23;20017;-95
2023/07/09 16:45:56;;;;;;;1.10;1.05;;;;;;;31.26;37.56;100220.09;6067392;23;20022;-96
2023/07/09 16:48:24;;;;;;;0.55;0.55;;;;;;;31.25;38.32;100227.19;6090448;23;20011;-96
2023/07/09 16:50:56;;;;;;;0.90;0.45;;;;;;;31.25;38.63;100212.09;6101681;23;20042;-96
2023/07/09 16:59:30;;;;;;;0.85;0.77;;;;;;;31.14;39.20;100244.78;6146031;23;20082;-96
2023/07/09 18:44:21;;;;;;;1.35;0.88;;;;;;;27.32;61.92;100238.56;6147383;22;20026;-93
2023/07/09 18:46:48;;;;;;;1.88;1.10;;;;;;;27.28;62.42;100252.38;6096354;23;20029;-93
2023/07/09 18:49:14;;;;;;;0.98;0.93;;;;;;;27.11;63.33;100236.91;6125960;23;20105;-93
2023/07/09 18:51:40;;;;;;;1.10;1.00;;;;;;;27.04;64.22;100246.13;6121677;23;20045;-93
2023/07/09 18:54:18;;;;;;;0.95;0.93;;;;;;;26.97;65.88;100261.03;6098028;23;20028;-93
2023/07/09 18:56:47;;;;;;;0.98;0.90;;;;;;;26.84;67.17;100262.53;6122953;23;20013;-93
2023/07/09 18:59:20;;;;;;;1.55;1.38;;;;;;;26.75;71.51;100260.06;6098285;23;20002;-93
2023/07/09 19:01:47;;;;;;;2.10;1.35;;;;;;;26.56;75.33;100276.44;6097706;23;20072;-91
2023/07/09 19:04:18;;;;;;;0.93;0.82;;;;;;;26.40;81.39;100269.72;6074872;23;20117;-95
2023/07/09 19:06:45;;;;;;;2.33;0.88;;;;;;;26.38;83.43;100271.56;6098634;23;20084;-93
2023/07/09 19:09:20;;;;;;;2.17;1.98;;;;;;;26.33;84.42;100281.72;6098506;23;20044;-92
2023/07/09 19:11:49;;;;;;;1.52;1.23;;;;;;;26.22;90.21;100270.53;6074183;23;20325;-95
2023/07/09 19:14:19;;;;;;;1.33;1.13;;;;;;;26.24;89.25;100284.22;6123464;23;20034;-94
2023/07/09 20:29:23;;;;;;;1.48;1.08;;;;;;;24.03;100.00;100283.84;6144384;23;20057;-91
2023/07/09 20:31:53;;;;;;;1.00;0.82;;;;;;;23.83;100.00;100267.22;6068373;23;20029;-90
2023/07/09 20:34:25;;;;;;;1.30;1.20;;;;;;;23.87;100.00;100287.53;6073530;23;20016;-91
2023/07/09 20:36:52;;;;;;;1.20;1.02;;;;;;;23.81;100.00;100286.81;6096281;23;20014;-91
2023/07/09 20:39:21;;;;;;;0.57;0.57;;;;;;;23.62;100.00;100266.03;6073328;23;20014;-91
2023/07/09 20:41:56;;;;;;;0.73;0.73;;;;;;;23.31;100.00;100255.84;6095530;23;20399;-94
2023/07/09 20:44:30;;;;;;;0.40;0.40;;;;;;;23.23;100.00;100252.03;6096591;23;20018;-96
2023/07/09 20:46:56;;;;;;;1.27;0.93;;;;;;;23.31;100.00;100274.88;6080811;23;20045;-95
2023/07/09 20:49:27;;;;;;;0.63;0.63;;;;;;;23.17;100.00;100260.50;6080451;23;20095;-95
2023/07/09 20:51:54;;;;;;;0.88;0.80;;;;;;;23.08;100.00;100257.22;6079133;23;20078;-95
2023/07/09 20:54:20;;;;;;;1.23;1.13;;;;;;;23.41;100.00;100312.97;6089156;23;20010;-96
